Time;durP1;ratioP1;P1;durP2;ratioP2;P2;SDS_P1;SDS_P2;PMS_P1;PMS_P2;Temp;Humidity;BMP_temperature;BMP_pressure;BME280_temperature;BME280_humidity;BME280_pressure;Samples;Min_cycle;Max_cycle;Signal;HPM_P1;HPM_P2
2023/05/06 00:01:23;;;;;;;;;1.00;1.00;;;;;;;;5049677;28;9476;-86
2023/05/06 00:03:51;;;;;;;;;2.00;2.00;;;;;;;;5051147;28;9023;-86
2023/05/06 00:06:20;;;;;;;;;2.00;2.00;;;;;;;;5051420;28;9006;-86
2023/05/06 00:08:47;;;;;;;;;2.00;2.00;;;;;;;;5052593;28;9871;-84
2023/05/06 00:11:14;;;;;;;;;1.67;1.67;;;;;;;;5053814;28;9113;-85
2023/05/06 00:13:41;;;;;;;;;4.00;4.00;;;;;;;;5052372;28;9202;-83
2023/05/06 00:16:09;;;;;;;;;4.00;2.00;;;;;;;;5053225;28;9163;-85
2023/05/06 00:18:36;;;;;;;;;2.00;2.00;;;;;;;;5056586;28;9195;-85
2023/05/06 00:21:05;;;;;;;;;4.00;2.67;;;;;;;;5060554;28;9111;-85
2023/05/06 00:23:35;;;;;;;;;3.00;1.00;;;;;;;;5053020;28;9277;-84
2023/05/06 00:26:06;;;;;;;;;2.67;2.67;;;;;;;;5053051;28;9315;-84
2023/05/06 00:28:34;;;;;;;;;5.00;5.00;;;;;;;;5052750;28;9217;-84
2023/05/06 00:31:01;;;;;;;;;2.67;2.67;;;;;;;;5051912;28;9474;-84
2023/05/06 00:33:29;;;;;;;;;3.00;3.00;;;;;;;;5053153;28;9241;-84
2023/05/06 00:35:56;;;;;;;;;2.67;2.67;;;;;;;;5052425;28;9323;-84
2023/05/06 00:38:25;;;;;;;;;4.00;2.67;;;;;;;;5053864;28;9347;-84
2023/05/06 00:40:52;;;;;;;;;2.00;2.00;;;;;;;;5054354;28;9331;-84
2023/05/06 00:43:20;;;;;;;;;2.00;2.00;;;;;;;;5055334;28;9360;-85
2023/05/06 00:45:51;;;;;;;;;3.00;2.00;;;;;;;;5055193;28;9238;-84
2023/05/06 00:48:19;;;;;;;;;2.33;2.33;;;;;;;;5055363;28;9507;-84
2023/05/06 00:50:46;;;;;;;;;4.00;2.00;;;;;;;;5055545;28;9595;-84
2023/05/06 00:53:13;;;;;;;;;1.00;1.00;;;;;;;;5055541;28;9363;-85
2023/05/06 00:55:42;;;;;;;;;4.50;4.50;;;;;;;;5053207;28;9629;-84
2023/05/06 00:58:09;;;;;;;;;2.00;2.00;;;;;;;;5052477;28;9477;-83
2023/05/06 01:00:37;;;;;;;;;3.00;3.00;;;;;;;;5048583;28;9581;-85
2023/05/06 01:03:04;;;;;;;;;2.00;2.00;;;;;;;;5051954;28;9602;-83
2023/05/06 01:05:36;;;;;;;;;2.00;2.00;;;;;;;;5051957;28;9609;-84
2023/05/06 01:08:11;;;;;;;;;2.50;2.50;;;;;;;;5051621;28;9549;-83
2023/05/06 01:10:46;;;;;;;;;3.00;3.00;;;;;;;;5051495;28;9559;-84
2023/05/06 01:13:17;;;;;;;;;2.50;2.50;;;;;;;;5050869;28;9655;-82
2023/05/06 01:15:46;;;;;;;;;4.50;1.75;;;;;;;;5050666;28;9559;-84
2023/05/06 01:18:17;;;;;;;;;2.00;2.00;;;;;;;;5050611;28;9536;-83
2023/05/06 01:20:49;;;;;;;;;3.00;3.00;;;;;;;;5034167;28;9574;-84
2023/05/06 01:23:19;;;;;;;;;2.75;2.75;;;;;;;;5051058;28;9563;-84
2023/05/06 01:25:46;;;;;;;;;6.00;4.00;;;;;;;;5051846;28;9533;-84
2023/05/06 01:28:14;;;;;;;;;1.00;1.00;;;;;;;;5049674;28;9598;-84
2023/05/06 01:30:52;;;;;;;;;3.00;3.00;;;;;;;;5050528;28;9438;-84
2023/05/06 01:33:25;;;;;;;;;2.25;2.25;;;;;;;;5051678;28;9530;-84
2023/05/06 01:35:58;;;;;;;;;2.00;2.00;;;;;;;;5033839;28;9613;-85
2023/05/06 01:38:34;;;;;;;;;3.50;3.50;;;;;;;;5051152;28;9483;-85
2023/05/06 01:41:03;;;;;;;;;3.00;3.00;;;;;;;;5051750;28;10333;-84
2023/05/06 01:43:35;;;;;;;;;3.25;2.50;;;;;;;;5051326;28;9654;-84
2023/05/06 01:46:03;;;;;;;;;3.00;3.00;;;;;;;;5052430;28;9634;-85
2023/05/06 01:48:32;;;;;;;;;2.00;2.00;;;;;;;;5052428;28;9673;-85
2023/05/06 01:50:59;;;;;;;;;3.75;2.00;;;;;;;;5052547;28;9547;-85
2023/05/06 01:53:28;;;;;;;;;2.00;2.00;;;;;;;;5051998;28;9537;-84
2023/05/06 01:55:55;;;;;;;;;2.25;2.25;;;;;;;;5053465;28;9714;-84
2023/05/06 01:58:23;;;;;;;;;2.75;2.75;;;;;;;;5046795;28;9555;-84
2023/05/06 02:00:50;;;;;;;;;2.00;2.00;;;;;;;;5051647;28;9549;-83
2023/05/06 02:03:19;;;;;;;;;5.50;3.00;;;;;;;;5052055;28;9614;-83
2023/05/06 02:05:46;;;;;;;;;3.25;3.25;;;;;;;;5051052;28;9860;-84
2023/05/06 02:08:14;;;;;;;;;3.00;3.00;;;;;;;;5050950;28;9835;-84
2023/05/06 02:10:42;;;;;;;;;2.75;2.75;;;;;;;;5049964;28;9730;-83
2023/05/06 02:13:11;;;;;;;;;3.00;3.00;;;;;;;;5050667;28;9820;-83
2023/05/06 02:15:38;;;;;;;;;3.00;3.00;;;;;;;;5050447;28;9537;-83
2023/05/06 02:18:05;;;;;;;;;3.00;3.00;;;;;;;;5050480;28;9782;-83
2023/05/06 02:20:33;;;;;;;;;4.00;2.75;;;;;;;;5049586;28;9605;-83
2023/05/06 02:23:00;;;;;;;;;2.00;2.00;;;;;;;;5050144;28;9888;-83
2023/05/06 02:25:30;;;;;;;;;1.75;1.75;;;;;;;;5049985;28;9618;-83
2023/05/06 02:27:59;;;;;;;;;3.50;2.00;;;;;;;;5051262;28;9722;-83
2023/05/06 02:30:29;;;;;;;;;1.75;1.75;;;;;;;;5038523;28;9890;-84
2023/05/06 02:32:56;;;;;;;;;4.25;2.75;;;;;;;;5051028;28;9640;-83
2023/05/06 02:35:24;;;;;;;;;3.75;2.75;;;;;;;;5052766;28;9864;-83
2023/05/06 02:37:51;;;;;;;;;5.00;4.00;;;;;;;;5052095;28;9676;-81
2023/05/06 02:40:19;;;;;;;;;3.00;3.00;;;;;;;;5052884;28;9883;-83
2023/05/06 02:42:46;;;;;;;;;3.75;3.75;;;;;;;;5054188;28;9790;-83
2023/05/06 02:45:15;;;;;;;;;5.00;3.00;;;;;;;;5052765;28;9931;-84
2023/05/06 02:47:42;;;;;;;;;3.50;3.50;;;;;;;;5051554;28;9893;-85
2023/05/06 02:50:09;;;;;;;;;4.00;4.00;;;;;;;;5049889;28;9779;-84
2023/05/06 02:52:37;;;;;;;;;5.00;5.00;;;;;;;;5049862;28;9849;-83
2023/05/06 02:55:05;;;;;;;;;5.00;5.00;;;;;;;;5049629;28;9896;-84
2023/05/06 02:57:32;;;;;;;;;4.00;4.00;;;;;;;;5049986;28;9773;-83
2023/05/06 02:59:59;;;;;;;;;4.25;4.00;;;;;;;;5042646;28;9856;-84
2023/05/06 03:02:28;;;;;;;;;3.00;3.00;;;;;;;;5023095;28;9735;-83
2023/05/06 03:04:55;;;;;;;;;3.25;3.25;;;;;;;;5029555;28;10212;-84
2023/05/06 03:07:22;;;;;;;;;4.25;4.25;;;;;;;;5030028;28;9848;-84
2023/05/06 03:09:50;;;;;;;;;4.75;4.75;;;;;;;;5029681;28;9846;-84
2023/05/06 03:12:17;;;;;;;;;3.25;3.25;;;;;;;;5028932;28;9753;-83
2023/05/06 03:14:44;;;;;;;;;4.00;4.00;;;;;;;;5029709;28;9764;-82
2023/05/06 03:17:11;;;;;;;;;4.50;4.50;;;;;;;;5028034;28;10797;-83
2023/05/06 03:19:40;;;;;;;;;4.50;4.50;;;;;;;;5010361;28;9878;-83
2023/05/06 03:22:08;;;;;;;;;4.00;4.00;;;;;;;;5025037;28;9789;-84
2023/05/06 03:24:35;;;;;;;;;5.00;5.00;;;;;;;;5029727;28;9875;-84
2023/05/06 03:27:02;;;;;;;;;5.75;4.50;;;;;;;;5027737;28;9901;-83
2023/05/06 03:29:29;;;;;;;;;3.25;3.25;;;;;;;;5019637;28;9850;-84
2023/05/06 03:31:57;;;;;;;;;4.50;4.50;;;;;;;;5028662;28;10017;-84
2023/05/06 03:34:24;;;;;;;;;5.50;5.50;;;;;;;;5029536;28;9866;-84
2023/05/06 03:36:53;;;;;;;;;5.50;5.50;;;;;;;;5027817;28;9859;-84
2023/05/06 03:39:20;;;;;;;;;5.50;4.25;;;;;;;;5029168;28;9946;-84
2023/05/06 03:41:47;;;;;;;;;6.00;6.00;;;;;;;;5029557;28;9796;-84
2023/05/06 03:44:15;;;;;;;;;3.50;3.00;;;;;;;;5030487;28;9866;-84
2023/05/06 03:46:42;;;;;;;;;4.00;3.00;;;;;;;;5029831;28;9783;-84
2023/05/06 03:49:10;;;;;;;;;6.00;4.50;;;;;;;;5031170;28;9873;-84
2023/05/06 03:51:38;;;;;;;;;5.25;5.25;;;;;;;;5031089;28;9835;-84
2023/05/06 03:54:08;;;;;;;;;5.75;5.75;;;;;;;;5029291;28;9751;-84
2023/05/06 03:56:36;;;;;;;;;5.00;5.00;;;;;;;;5028638;28;9793;-83
2023/05/06 03:59:03;;;;;;;;;5.00;5.00;;;;;;;;5028406;28;9614;-84
2023/05/06 04:01:30;;;;;;;;;5.00;5.00;;;;;;;;5028019;28;9552;-84
2023/05/06 04:03:58;;;;;;;;;4.75;4.75;;;;;;;;5027842;28;9813;-83
2023/05/06 04:06:25;;;;;;;;;5.00;4.00;;;;;;;;5028811;28;9726;-83
2023/05/06 04:08:53;;;;;;;;;6.00;6.00;;;;;;;;5028043;28;9610;-84
2023/05/06 04:11:21;;;;;;;;;6.50;6.25;;;;;;;;5027785;28;9767;-84
2023/05/06 04:13:49;;;;;;;;;6.75;5.25;;;;;;;;5028549;28;9535;-84
2023/05/06 04:16:16;;;;;;;;;6.25;6.25;;;;;;;;5028772;28;9710;-83
2023/05/06 04:18:44;;;;;;;;;5.25;5.25;;;;;;;;5028282;28;9464;-82
2023/05/06 04:21:12;;;;;;;;;7.50;6.25;;;;;;;;5028355;28;9492;-83
2023/05/06 04:23:43;;;;;;;;;6.25;6.25;;;;;;;;5029245;28;10352;-83
2023/05/06 04:26:10;;;;;;;;;5.00;5.00;;;;;;;;5030645;28;9467;-84
2023/05/06 04:28:40;;;;;;;;;5.75;5.75;;;;;;;;5030548;28;9454;-84
2023/05/06 04:31:09;;;;;;;;;2.50;2.50;;;;;;;;5039759;28;9468;-83
2023/05/06 04:33:36;;;;;;;;;6.00;5.00;;;;;;;;5050781;28;9560;-83
2023/05/06 04:36:04;;;;;;;;;6.00;5.00;;;;;;;;5049892;28;9397;-84
2023/05/06 04:38:31;;;;;;;;;7.00;5.00;;;;;;;;5049345;28;9620;-84
2023/05/06 04:40:59;;;;;;;;;7.67;7.00;;;;;;;;5047886;28;9391;-84
2023/05/06 04:43:27;;;;;;;;;7.00;7.00;;;;;;;;5048124;28;9345;-84
2023/05/06 04:46:01;;;;;;;;;8.00;8.00;;;;;;;;5048395;28;9470;-82
2023/05/06 04:48:29;;;;;;;;;11.00;9.00;;;;;;;;5048410;28;9331;-84
2023/05/06 04:50:58;;;;;;;;;7.00;7.00;;;;;;;;5048223;28;9414;-84
2023/05/06 04:53:26;;;;;;;;;8.00;7.00;;;;;;;;5047689;28;9287;-84
2023/05/06 04:55:55;;;;;;;;;7.00;7.00;;;;;;;;5050943;28;9303;-84
2023/05/06 04:58:22;;;;;;;;;8.00;8.00;;;;;;;;5050911;28;9399;-84
2023/05/06 05:00:49;;;;;;;;;9.00;9.00;;;;;;;;5044826;28;9370;-84
2023/05/06 05:03:18;;;;;;;;;9.00;9.00;;;;;;;;5030477;28;9320;-84
2023/05/06 05:05:45;;;;;;;;;10.00;8.00;;;;;;;;5030581;28;9421;-84
2023/05/06 05:08:15;;;;;;;;;13.00;10.00;;;;;;;;5020870;28;9521;-84
2023/05/06 05:10:43;;;;;;;;;9.00;9.00;;;;;;;;5030602;28;9487;-84
2023/05/06 05:13:10;;;;;;;;;10.67;9.00;;;;;;;;5031403;28;9368;-84
2023/05/06 05:15:41;;;;;;;;;9.00;9.00;;;;;;;;5031671;28;9334;-84
2023/05/06 05:18:08;;;;;;;;;9.33;8.67;;;;;;;;5031488;28;9323;-85
2023/05/06 05:20:37;;;;;;;;;9.00;9.00;;;;;;;;5030466;28;10108;-84
2023/05/06 05:23:04;;;;;;;;;9.00;9.00;;;;;;;;5031843;28;9248;-84
2023/05/06 05:25:32;;;;;;;;;13.67;13.67;;;;;;;;5031382;28;9241;-85
2023/05/06 05:27:59;;;;;;;;;11.67;11.67;;;;;;;;5030835;28;9255;-82
2023/05/06 05:30:26;;;;;;;;;17.67;17.00;;;;;;;;5028821;28;9216;-83
2023/05/06 05:32:54;;;;;;;;;26.50;25.50;;;;;;;;5031877;28;9393;-83
2023/05/06 05:35:21;;;;;;;;;35.50;33.75;;;;;;;;5032036;28;9757;-83
2023/05/06 05:37:52;;;;;;;;;21.75;21.50;;;;;;;;5014818;28;10047;-84
2023/05/06 05:40:20;;;;;;;;;19.75;16.75;;;;;;;;5033074;28;9718;-84
2023/05/06 05:42:47;;;;;;;;;11.33;10.67;;;;;;;;5031836;28;9651;-84
2023/05/06 05:45:15;;;;;;;;;10.67;10.67;;;;;;;;5030488;28;9335;-84
2023/05/06 05:47:42;;;;;;;;;11.33;11.33;;;;;;;;5030180;28;9134;-83
2023/05/06 05:50:10;;;;;;;;;11.00;11.00;;;;;;;;5030854;28;9202;-83
2023/05/06 05:52:39;;;;;;;;;10.67;10.67;;;;;;;;5031102;28;9072;-89
2023/05/06 05:55:10;;;;;;;;;9.00;9.00;;;;;;;;5033222;28;9209;-88
2023/05/06 05:57:38;;;;;;;;;16.33;13.00;;;;;;;;5032612;28;9034;-86
2023/05/06 06:00:08;;;;;;;;;17.00;15.33;;;;;;;;5030929;28;9175;-84
2023/05/06 06:02:40;;;;;;;;;13.00;13.00;;;;;;;;5051041;28;9022;-87
2023/05/06 06:05:10;;;;;;;;;19.33;17.67;;;;;;;;5046740;28;8947;-84
2023/05/06 06:07:39;;;;;;;;;12.00;12.00;;;;;;;;5049300;28;9789;-84
2023/05/06 06:10:12;;;;;;;;;13.00;12.33;;;;;;;;5051214;28;8946;-86
2023/05/06 06:12:39;;;;;;;;;12.00;11.33;;;;;;;;5053059;28;9003;-84
2023/05/06 06:15:09;;;;;;;;;15.00;11.00;;;;;;;;5053356;28;8922;-85
2023/05/06 06:17:37;;;;;;;;;11.00;11.00;;;;;;;;5040478;28;8936;-84
2023/05/06 06:20:05;;;;;;;;;10.00;10.00;;;;;;;;5052621;28;8933;-84
2023/05/06 06:22:35;;;;;;;;;10.00;10.00;;;;;;;;5065869;28;9006;-88
2023/05/06 06:25:03;;;;;;;;;11.00;11.00;;;;;;;;5046599;28;8930;-86
2023/05/06 06:27:35;;;;;;;;;13.00;11.25;;;;;;;;5051290;28;8852;-85
2023/05/06 06:30:06;;;;;;;;;13.25;11.25;;;;;;;;5050153;28;8852;-86
2023/05/06 06:32:34;;;;;;;;;10.75;10.75;;;;;;;;5030552;28;8854;-86
2023/05/06 06:35:03;;;;;;;;;15.00;13.00;;;;;;;;5029638;28;8826;-85
2023/05/06 06:37:31;;;;;;;;;19.75;19.25;;;;;;;;5030337;28;8927;-86
2023/05/06 06:40:00;;;;;;;;;14.50;14.50;;;;;;;;5029103;28;9044;-86
2023/05/06 06:42:27;;;;;;;;;14.75;14.75;;;;;;;;5029538;28;8965;-86
2023/05/06 06:44:59;;;;;;;;;14.00;11.00;;;;;;;;5029078;28;8846;-86
2023/05/06 06:47:31;;;;;;;;;14.00;10.75;;;;;;;;5030376;28;8854;-87
2023/05/06 06:49:58;;;;;;;;;11.25;10.00;;;;;;;;5030123;28;8862;-87
2023/05/06 06:52:25;;;;;;;;;9.75;8.75;;;;;;;;5028759;28;8976;-78
2023/05/06 06:54:52;;;;;;;;;9.75;9.75;;;;;;;;5028360;28;9009;-80
2023/05/06 06:57:20;;;;;;;;;7.75;7.75;;;;;;;;5025689;28;8859;-77
2023/05/06 06:59:50;;;;;;;;;9.25;9.25;;;;;;;;5027773;28;8854;-75
2023/05/06 07:02:20;;;;;;;;;8.75;8.75;;;;;;;;5025284;28;8824;-77
2023/05/06 07:04:52;;;;;;;;;11.00;11.00;;;;;;;;5029305;28;8845;-79
2023/05/06 07:07:19;;;;;;;;;10.50;10.50;;;;;;;;5024904;28;8869;-78
2023/05/06 07:09:47;;;;;;;;;10.00;8.00;;;;;;;;5028823;28;8941;-80
2023/05/06 07:12:14;;;;;;;;;9.50;9.00;;;;;;;;5027554;28;8940;-82
2023/05/06 07:14:42;;;;;;;;;10.00;9.75;;;;;;;;5028468;28;8834;-77
2023/05/06 07:17:09;;;;;;;;;11.75;11.75;;;;;;;;5026906;28;8961;-77
2023/05/06 07:19:38;;;;;;;;;10.25;10.25;;;;;;;;5028529;28;9682;-78
2023/05/06 07:22:05;;;;;;;;;6.50;6.50;;;;;;;;5028104;28;8961;-78
2023/05/06 07:24:32;;;;;;;;;10.50;9.25;;;;;;;;5028806;28;8846;-78
2023/05/06 07:27:01;;;;;;;;;12.00;9.00;;;;;;;;5027719;28;8908;-78
2023/05/06 07:29:28;;;;;;;;;10.00;10.00;;;;;;;;5028475;28;8957;-78
2023/05/06 07:31:55;;;;;;;;;8.00;8.00;;;;;;;;5027598;28;8794;-78
2023/05/06 07:34:22;;;;;;;;;8.75;8.75;;;;;;;;5027633;28;8863;-78
2023/05/06 07:36:51;;;;;;;;;8.50;8.50;;;;;;;;5027446;28;8961;-77
2023/05/06 07:39:18;;;;;;;;;9.50;9.00;;;;;;;;5027540;28;9668;-81
2023/05/06 07:41:46;;;;;;;;;9.00;9.00;;;;;;;;5028466;28;8858;-78
2023/05/06 07:44:13;;;;;;;;;9.25;9.25;;;;;;;;5027792;28;8858;-80
2023/05/06 07:46:44;;;;;;;;;10.50;10.50;;;;;;;;5028837;28;8847;-81
2023/05/06 07:49:12;;;;;;;;;10.25;10.25;;;;;;;;5028901;28;8846;-82
2023/05/06 07:51:42;;;;;;;;;8.75;8.75;;;;;;;;5029330;28;8882;-84
2023/05/06 07:54:11;;;;;;;;;10.00;10.00;;;;;;;;5029773;28;8905;-81
2023/05/06 07:56:39;;;;;;;;;11.25;9.00;;;;;;;;5029109;28;8846;-80
2023/05/06 07:59:06;;;;;;;;;9.25;9.25;;;;;;;;5028817;28;8858;-81
2023/05/06 08:01:33;;;;;;;;;8.50;8.50;;;;;;;;5030622;28;8891;-80
2023/05/06 08:04:00;;;;;;;;;8.50;8.00;;;;;;;;5030041;28;9001;-79
2023/05/06 08:06:28;;;;;;;;;9.00;9.00;;;;;;;;5031483;28;8856;-81
2023/05/06 08:08:55;;;;;;;;;8.50;7.50;;;;;;;;5028739;28;8842;-76
2023/05/06 08:11:24;;;;;;;;;7.75;6.75;;;;;;;;5028419;28;8858;-77
2023/05/06 08:13:54;;;;;;;;;6.00;6.00;;;;;;;;5028254;28;8846;-76
2023/05/06 08:16:21;;;;;;;;;5.00;5.00;;;;;;;;5027524;28;8835;-79
2023/05/06 08:18:48;;;;;;;;;6.00;6.00;;;;;;;;5027082;28;8881;-77
2023/05/06 08:21:17;;;;;;;;;6.00;6.00;;;;;;;;5026839;28;9012;-84
2023/05/06 08:23:45;;;;;;;;;4.50;4.50;;;;;;;;5026738;28;9716;-80
2023/05/06 08:26:12;;;;;;;;;5.00;5.00;;;;;;;;5027199;28;8852;-78
2023/05/06 08:28:41;;;;;;;;;6.50;5.25;;;;;;;;5028090;28;8968;-78
2023/05/06 08:31:08;;;;;;;;;5.75;5.75;;;;;;;;5025310;28;8801;-81
2023/05/06 08:33:35;;;;;;;;;9.25;5.00;;;;;;;;5029635;28;8854;-80
2023/05/06 08:36:02;;;;;;;;;6.00;6.00;;;;;;;;5019290;28;8870;-79
2023/05/06 08:38:30;;;;;;;;;6.75;6.00;;;;;;;;5030392;28;8947;-80
2023/05/06 08:41:02;;;;;;;;;6.00;6.00;;;;;;;;5031876;28;8835;-85
2023/05/06 08:43:33;;;;;;;;;7.20;6.40;;;;;;;;5033117;28;8916;-81
2023/05/06 08:46:03;;;;;;;;;10.25;7.25;;;;;;;;5031387;28;8874;-81
2023/05/06 08:48:31;;;;;;;;;5.40;5.40;;;;;;;;5032707;28;8886;-82
2023/05/06 08:51:02;;;;;;;;;4.80;4.80;;;;;;;;5031461;28;9580;-87
2023/05/06 08:53:30;;;;;;;;;5.20;5.20;;;;;;;;5032562;28;8854;-80
2023/05/06 08:56:02;;;;;;;;;6.00;6.00;;;;;;;;5031395;28;8873;-81
2023/05/06 08:58:32;;;;;;;;;9.40;4.40;;;;;;;;5032080;28;8928;-84
2023/05/06 09:01:03;;;;;;;;;6.80;6.80;;;;;;;;5030147;28;8787;-81
2023/05/06 09:03:31;;;;;;;;;6.00;4.80;;;;;;;;5031604;28;8941;-84
2023/05/06 09:06:01;;;;;;;;;6.00;6.00;;;;;;;;5033540;28;8884;-81
2023/05/06 09:08:29;;;;;;;;;4.20;4.20;;;;;;;;5032784;28;8854;-78
2023/05/06 09:10:57;;;;;;;;;3.40;2.60;;;;;;;;5031716;28;8854;-80
2023/05/06 09:13:25;;;;;;;;;4.00;4.00;;;;;;;;5031111;28;8844;-86
2023/05/06 09:15:54;;;;;;;;;3.40;3.40;;;;;;;;5031318;28;8856;-85
2023/05/06 09:18:23;;;;;;;;;3.00;3.00;;;;;;;;5031942;28;9020;-81
2023/05/06 09:20:51;;;;;;;;;1.40;1.40;;;;;;;;5031785;28;8862;-82
2023/05/06 09:23:19;;;;;;;;;4.00;4.00;;;;;;;;5030503;28;8858;-85
2023/05/06 09:25:50;;;;;;;;;3.00;3.00;;;;;;;;5031024;28;8834;-78
2023/05/06 09:28:17;;;;;;;;;2.60;2.20;;;;;;;;5030254;28;8866;-83
2023/05/06 09:30:46;;;;;;;;;3.40;3.40;;;;;;;;5030382;28;8815;-80
2023/05/06 09:33:14;;;;;;;;;3.20;3.20;;;;;;;;5032430;28;9700;-80
2023/05/06 09:35:49;;;;;;;;;2.00;1.40;;;;;;;;5023808;28;8837;-86
2023/05/06 09:38:23;;;;;;;;;2.60;2.60;;;;;;;;5030561;28;8863;-83
2023/05/06 09:40:51;;;;;;;;;2.60;2.60;;;;;;;;5030403;28;8881;-83
2023/05/06 09:43:19;;;;;;;;;4.40;3.40;;;;;;;;5031540;28;8947;-85
2023/05/06 09:45:47;;;;;;;;;3.00;3.00;;;;;;;;5032655;28;8839;-81
2023/05/06 09:48:15;;;;;;;;;3.40;2.80;;;;;;;;5032108;28;8847;-84
2023/05/06 09:50:44;;;;;;;;;2.80;2.80;;;;;;;;5033313;28;8965;-88
2023/05/06 09:53:18;;;;;;;;;3.40;3.40;;;;;;;;5034396;28;8850;-91
2023/05/06 09:55:47;;;;;;;;;5.20;3.00;;;;;;;;5035105;28;8873;-83
2023/05/06 09:58:15;;;;;;;;;4.40;3.80;;;;;;;;5033409;28;8965;-81
2023/05/06 10:00:44;;;;;;;;;4.20;3.00;;;;;;;;5030867;28;8818;-80
2023/05/06 10:03:14;;;;;;;;;1.80;1.80;;;;;;;;5032535;28;8870;-82
2023/05/06 10:05:42;;;;;;;;;3.00;3.00;;;;;;;;5031929;28;8858;-84
2023/05/06 10:08:17;;;;;;;;;3.00;3.00;;;;;;;;5029949;28;8842;-85
2023/05/06 10:10:46;;;;;;;;;3.80;2.80;;;;;;;;5030202;28;8846;-78
2023/05/06 10:13:13;;;;;;;;;4.80;2.20;;;;;;;;5028966;28;9618;-79
2023/05/06 10:15:42;;;;;;;;;2.00;2.00;;;;;;;;5029925;28;8858;-79
2023/05/06 10:18:10;;;;;;;;;2.80;2.80;;;;;;;;5028889;28;8843;-83
2023/05/06 10:20:37;;;;;;;;;3.20;2.00;;;;;;;;5029583;28;8839;-81
2023/05/06 10:23:13;;;;;;;;;2.80;2.80;;;;;;;;5028584;28;9596;-86
2023/05/06 10:25:42;;;;;;;;;3.00;3.00;;;;;;;;5030078;28;8855;-80
2023/05/06 10:28:11;;;;;;;;;5.20;2.00;;;;;;;;5028808;28;8838;-78
2023/05/06 10:30:40;;;;;;;;;2.80;2.80;;;;;;;;5028397;28;8767;-82
2023/05/06 10:33:08;;;;;;;;;3.40;2.00;;;;;;;;5022380;28;8844;-80
2023/05/06 10:35:46;;;;;;;;;3.00;2.60;;;;;;;;5014354;28;8852;-80
2023/05/06 10:38:18;;;;;;;;;2.00;2.00;;;;;;;;5026813;28;8867;-79
2023/05/06 10:40:46;;;;;;;;;1.60;1.60;;;;;;;;5028966;28;8866;-78
2023/05/06 10:43:29;;;;;;;;;4.00;3.40;;;;;;;;5028315;28;8854;-76
2023/05/06 10:46:04;;;;;;;;;2.40;2.40;;;;;;;;5028748;28;8846;-76
2023/05/06 10:48:32;;;;;;;;;2.20;2.20;;;;;;;;5029109;28;8838;-83
2023/05/06 10:51:22;;;;;;;;;4.00;3.00;;;;;;;;5028327;28;8964;-83
2023/05/06 10:54:01;;;;;;;;;2.20;2.20;;;;;;;;5029308;28;8845;-83
2023/05/06 10:56:29;;;;;;;;;6.00;3.00;;;;;;;;5028444;28;9643;-79
2023/05/06 10:58:57;;;;;;;;;4.80;3.40;;;;;;;;5028945;28;8845;-82
2023/05/06 11:01:27;;;;;;;;;4.00;4.00;;;;;;;;5028333;28;8795;-80
2023/05/06 11:03:54;;;;;;;;;3.80;3.00;;;;;;;;5029223;28;8834;-85
2023/05/06 11:06:35;;;;;;;;;3.20;3.00;;;;;;;;5020210;28;8877;-84
2023/05/06 11:09:04;;;;;;;;;3.20;3.20;;;;;;;;5029830;28;8866;-82
2023/05/06 11:11:52;;;;;;;;;4.80;4.00;;;;;;;;5029160;28;8842;-92
2023/05/06 11:14:27;;;;;;;;;4.40;4.40;;;;;;;;5027966;28;8855;-90
2023/05/06 11:16:56;;;;;;;;;3.00;3.00;;;;;;;;5030077;28;8830;-90
2023/05/06 11:19:25;;;;;;;;;4.00;4.00;;;;;;;;5021367;28;9774;-90
2023/05/06 11:21:54;;;;;;;;;3.20;3.20;;;;;;;;5029858;28;8992;-91
2023/05/06 11:24:25;;;;;;;;;3.80;3.80;;;;;;;;5029857;28;8862;-90
2023/05/06 11:26:53;;;;;;;;;5.60;5.60;;;;;;;;5030441;28;8862;-91
2023/05/06 11:29:25;;;;;;;;;3.60;3.60;;;;;;;;5030157;28;8835;-79
2023/05/06 11:31:53;;;;;;;;;4.60;4.60;;;;;;;;5029734;28;9323;-90
2023/05/06 11:34:26;;;;;;;;;4.40;4.40;;;;;;;;5032123;28;8858;-76
2023/05/06 11:37:02;;;;;;;;;3.00;3.00;;;;;;;;5018030;28;8842;-80
2023/05/06 11:39:40;;;;;;;;;3.40;3.00;;;;;;;;5032223;28;8862;-82
2023/05/06 11:42:08;;;;;;;;;3.60;3.60;;;;;;;;5021797;28;8961;-85
2023/05/06 11:44:38;;;;;;;;;4.40;4.40;;;;;;;;5030028;28;8876;-81
2023/05/06 11:47:06;;;;;;;;;3.80;3.80;;;;;;;;5028516;28;8928;-79
2023/05/06 11:49:39;;;;;;;;;3.80;3.80;;;;;;;;5028487;28;8847;-76
2023/05/06 11:52:08;;;;;;;;;5.40;4.60;;;;;;;;5028336;28;8985;-82
2023/05/06 11:54:39;;;;;;;;;6.80;5.00;;;;;;;;5028125;28;8865;-83
2023/05/06 11:57:06;;;;;;;;;5.20;4.60;;;;;;;;5027022;28;8877;-83
2023/05/06 11:59:37;;;;;;;;;4.00;4.00;;;;;;;;5026977;28;8839;-80
2023/05/06 12:02:05;;;;;;;;;4.00;4.00;;;;;;;;5025953;28;8786;-84
2023/05/06 12:04:40;;;;;;;;;6.00;4.20;;;;;;;;5033395;28;8866;-82
2023/05/06 12:07:09;;;;;;;;;4.00;2.20;;;;;;;;5033696;28;9609;-83
2023/05/06 12:09:39;;;;;;;;;3.80;3.80;;;;;;;;5036388;28;8889;-82
2023/05/06 12:12:08;;;;;;;;;4.20;4.20;;;;;;;;5036556;28;9202;-82
2023/05/06 12:14:36;;;;;;;;;2.80;2.80;;;;;;;;5034598;28;9695;-84
2023/05/06 12:17:04;;;;;;;;;2.00;2.00;;;;;;;;5034105;28;8831;-86
2023/05/06 12:19:31;;;;;;;;;3.80;3.20;;;;;;;;5034427;28;8854;-78
2023/05/06 12:22:14;;;;;;;;;4.20;4.20;;;;;;;;5034038;28;8858;-83
2023/05/06 12:24:42;;;;;;;;;4.60;3.80;;;;;;;;5034140;28;8850;-81
2023/05/06 12:27:10;;;;;;;;;2.60;2.60;;;;;;;;5033436;28;8854;-85
2023/05/06 12:29:37;;;;;;;;;4.00;4.00;;;;;;;;5033983;28;8904;-77
2023/05/06 12:32:08;;;;;;;;;3.00;3.00;;;;;;;;5032946;28;8811;-85
2023/05/06 12:34:40;;;;;;;;;4.00;3.00;;;;;;;;5033815;28;8819;-84
2023/05/06 12:37:08;;;;;;;;;4.00;4.00;;;;;;;;5022970;28;8866;-80
2023/05/06 12:39:36;;;;;;;;;3.00;3.00;;;;;;;;5033922;28;8861;-85
2023/05/06 12:42:05;;;;;;;;;3.00;3.00;;;;;;;;5037732;28;8955;-85
2023/05/06 12:44:35;;;;;;;;;4.80;3.00;;;;;;;;5037369;28;8880;-89
2023/05/06 12:47:03;;;;;;;;;4.40;3.00;;;;;;;;5037112;28;9596;-86
2023/05/06 12:49:50;;;;;;;;;4.00;2.60;;;;;;;;5033709;28;8838;-83
2023/05/06 12:52:18;;;;;;;;;2.40;2.40;;;;;;;;5033946;28;8866;-78
2023/05/06 12:54:46;;;;;;;;;3.00;3.00;;;;;;;;5034570;28;8834;-81
2023/05/06 12:57:14;;;;;;;;;3.60;3.60;;;;;;;;5033924;28;8890;-83
2023/05/06 12:59:44;;;;;;;;;5.40;4.00;;;;;;;;5023124;28;8880;-82
2023/05/06 13:02:14;;;;;;;;;3.00;3.00;;;;;;;;5033891;28;8957;-86
2023/05/06 13:04:41;;;;;;;;;4.00;2.00;;;;;;;;5034840;28;8842;-88
2023/05/06 13:07:09;;;;;;;;;3.80;3.80;;;;;;;;5034304;28;8857;-83
2023/05/06 13:09:36;;;;;;;;;4.40;4.40;;;;;;;;5034080;28;8956;-85
2023/05/06 13:12:04;;;;;;;;;0.00;0.00;;;;;;;;5034722;28;8866;-85
2023/05/06 13:14:32;;;;;;;;;2.40;2.40;;;;;;;;5036894;28;8846;-86
2023/05/06 13:17:03;;;;;;;;;4.00;2.40;;;;;;;;5034612;28;8949;-84
2023/05/06 13:19:30;;;;;;;;;3.00;3.00;;;;;;;;5035278;28;8827;-86
2023/05/06 13:21:57;;;;;;;;;2.00;2.00;;;;;;;;5036290;28;8885;-81
2023/05/06 13:24:25;;;;;;;;;3.00;3.00;;;;;;;;5035980;28;8860;-86
2023/05/06 13:26:52;;;;;;;;;1.20;1.20;;;;;;;;5035062;28;8862;-87
2023/05/06 13:29:19;;;;;;;;;2.80;2.80;;;;;;;;5030789;28;8866;-82
2023/05/06 13:31:48;;;;;;;;;2.40;2.40;;;;;;;;5030416;28;8840;-83
2023/05/06 13:34:15;;;;;;;;;2.20;2.20;;;;;;;;5030036;28;8980;-81
2023/05/06 13:36:42;;;;;;;;;2.80;1.20;;;;;;;;5029554;28;8961;-85
2023/05/06 13:39:10;;;;;;;;;1.80;1.80;;;;;;;;5029655;28;9669;-82
2023/05/06 13:41:37;;;;;;;;;1.80;1.80;;;;;;;;5029800;28;9008;-80
2023/05/06 13:44:05;;;;;;;;;2.80;2.80;;;;;;;;5029649;28;8912;-77
2023/05/06 13:46:32;;;;;;;;;3.80;3.80;;;;;;;;5032672;28;8850;-81
2023/05/06 13:49:00;;;;;;;;;4.20;1.00;;;;;;;;5031811;28;8834;-83
2023/05/06 13:51:29;;;;;;;;;1.80;1.80;;;;;;;;5032299;28;8976;-75
2023/05/06 13:53:56;;;;;;;;;3.80;1.80;;;;;;;;5019740;28;8857;-86
2023/05/06 13:56:23;;;;;;;;;4.20;4.20;;;;;;;;5030003;28;9629;-83
2023/05/06 13:58:52;;;;;;;;;3.80;2.80;;;;;;;;5031029;28;8838;-82
2023/05/06 14:01:22;;;;;;;;;1.60;1.60;;;;;;;;5013446;28;8795;-75
2023/05/06 14:03:49;;;;;;;;;3.40;2.40;;;;;;;;5030818;28;8838;-80
2023/05/06 14:06:18;;;;;;;;;2.40;2.40;;;;;;;;5030154;28;9312;-89
2023/05/06 14:08:45;;;;;;;;;3.00;3.00;;;;;;;;5030348;28;8842;-90
2023/05/06 14:11:13;;;;;;;;;3.00;3.00;;;;;;;;5029692;28;8842;-87
2023/05/06 14:13:41;;;;;;;;;3.00;3.00;;;;;;;;5029964;28;8892;-89
2023/05/06 14:16:08;;;;;;;;;4.00;2.80;;;;;;;;5030327;28;8850;-79
2023/05/06 14:18:35;;;;;;;;;3.00;1.40;;;;;;;;5035490;28;8850;-80
2023/05/06 14:21:02;;;;;;;;;2.00;2.00;;;;;;;;5035575;28;8834;-80
2023/05/06 14:23:32;;;;;;;;;2.00;2.00;;;;;;;;5034832;28;8826;-93
2023/05/06 14:25:59;;;;;;;;;3.00;3.00;;;;;;;;5030542;28;8873;-79
2023/05/06 14:28:26;;;;;;;;;2.60;2.00;;;;;;;;5030378;28;9629;-87
2023/05/06 14:30:54;;;;;;;;;3.80;3.40;;;;;;;;5030863;28;8945;-84
2023/05/06 14:33:22;;;;;;;;;5.40;2.80;;;;;;;;5030615;28;8831;-83
2023/05/06 14:35:51;;;;;;;;;4.80;3.60;;;;;;;;5020214;28;8840;-92
2023/05/06 14:38:18;;;;;;;;;5.60;2.40;;;;;;;;5028176;28;8920;-91
2023/05/06 14:40:47;;;;;;;;;3.00;2.60;;;;;;;;5030074;28;8854;-90
2023/05/06 14:43:14;;;;;;;;;1.60;1.60;;;;;;;;5029642;28;8896;-81
2023/05/06 14:45:43;;;;;;;;;3.40;2.40;;;;;;;;5030087;28;8989;-82
2023/05/06 14:48:11;;;;;;;;;1.80;1.80;;;;;;;;5030293;28;8835;-82
2023/05/06 14:50:38;;;;;;;;;2.40;2.40;;;;;;;;5033479;28;8850;-80
2023/05/06 14:53:05;;;;;;;;;5.20;2.20;;;;;;;;5030882;28;8854;-83
2023/05/06 14:55:32;;;;;;;;;2.00;2.00;;;;;;;;5030498;28;9617;-82
2023/05/06 14:58:01;;;;;;;;;3.00;3.00;;;;;;;;5030716;28;8878;-79
2023/05/06 15:00:28;;;;;;;;;4.80;3.00;;;;;;;;5031398;28;8786;-84
2023/05/06 15:02:55;;;;;;;;;6.00;3.00;;;;;;;;5031337;28;8884;-87